createdAt,value
2019-02-12T00:00:32.168Z,23.79
2019-02-12T00:02:58.822Z,23.77
2019-02-12T00:05:25.470Z,23.75
2019-02-12T00:07:52.158Z,23.73
2019-02-12T00:10:18.819Z,23.76
2019-02-12T00:12:45.462Z,23.75
2019-02-12T00:15:12.219Z,23.78
2019-02-12T00:17:38.861Z,23.74
2019-02-12T00:20:05.551Z,23.76
2019-02-12T00:22:32.264Z,23.74
2019-02-12T00:24:58.909Z,23.75
2019-02-12T00:27:25.540Z,23.71
2019-02-12T00:29:52.186Z,23.72
2019-02-12T00:32:18.837Z,23.73
2019-02-12T00:34:45.522Z,23.69
2019-02-12T00:37:12.184Z,23.68
2019-02-12T00:39:38.841Z,23.69
2019-02-12T00:42:05.474Z,23.70
2019-02-12T00:44:32.175Z,23.67
2019-02-12T00:46:58.818Z,23.70
2019-02-12T00:49:25.527Z,23.76
2019-02-12T00:51:52.209Z,23.72
2019-02-12T00:54:18.903Z,23.75
2019-02-12T00:56:45.574Z,23.73
2019-02-12T00:59:12.213Z,23.73
2019-02-12T01:01:38.879Z,23.73
2019-02-12T01:04:05.516Z,23.73
2019-02-12T01:06:32.155Z,23.72
2019-02-12T01:08:58.862Z,23.73
2019-02-12T01:11:25.538Z,23.73
2019-02-12T01:13:52.187Z,23.75
2019-02-12T01:16:18.839Z,23.70
2019-02-12T01:18:45.633Z,23.71
2019-02-12T01:21:12.294Z,23.72
2019-02-12T01:23:38.994Z,23.69
2019-02-12T01:26:05.635Z,23.68
2019-02-12T01:28:32.295Z,23.74
2019-02-12T01:30:58.926Z,23.72
2019-02-12T01:33:25.574Z,23.76
2019-02-12T01:35:52.238Z,23.74
2019-02-12T01:38:18.896Z,23.74
2019-02-12T01:40:45.900Z,23.74
2019-02-12T01:43:12.236Z,23.73
2019-02-12T01:45:38.905Z,23.71
2019-02-12T01:48:05.571Z,23.72
2019-02-12T01:50:32.215Z,23.72
2019-02-12T01:52:58.876Z,23.72
2019-02-12T01:55:25.520Z,23.74
2019-02-12T01:57:52.181Z,23.69
2019-02-12T02:00:19.021Z,23.72
2019-02-12T02:02:45.626Z,23.70
2019-02-12T02:05:12.280Z,23.75
2019-02-12T02:07:38.919Z,23.70
2019-02-12T02:10:05.598Z,23.66
2019-02-12T02:12:32.235Z,23.70
2019-02-12T02:14:58.913Z,23.69
2019-02-12T02:17:25.550Z,23.72
2019-02-12T02:19:52.191Z,23.73
2019-02-12T02:22:18.918Z,23.69
2019-02-12T02:24:45.588Z,23.65
2019-02-12T02:27:12.224Z,23.69
2019-02-12T02:29:38.866Z,23.69
2019-02-12T02:32:05.527Z,23.68
2019-02-12T02:34:32.173Z,23.71
2019-02-12T02:36:58.838Z,23.69
2019-02-12T02:39:25.485Z,23.69
2019-02-12T02:41:52.166Z,23.69
2019-02-12T02:44:18.821Z,23.69
2019-02-12T02:46:45.462Z,23.67
2019-02-12T02:49:12.135Z,23.67
2019-02-12T02:51:38.866Z,23.74
2019-02-12T02:54:05.549Z,23.68
2019-02-12T02:56:32.187Z,23.64
2019-02-12T02:58:58.876Z,23.66
2019-02-12T03:01:25.523Z,23.64
2019-02-12T03:03:52.209Z,23.70
2019-02-12T03:06:18.897Z,23.69
2019-02-12T03:08:45.545Z,23.66
2019-02-12T03:11:12.201Z,23.67
2019-02-12T03:13:38.891Z,23.67
2019-02-12T03:16:05.530Z,23.67
2019-02-12T03:18:32.169Z,23.64
2019-02-12T03:20:58.870Z,23.67
2019-02-12T03:23:25.515Z,23.67
2019-02-12T03:25:52.199Z,23.64
2019-02-12T03:28:21.932Z,23.65
2019-02-12T03:30:48.591Z,23.66
2019-02-12T03:33:15.258Z,23.66
2019-02-12T03:35:41.905Z,23.66
2019-02-12T03:38:08.600Z,23.65
2019-02-12T03:40:35.237Z,23.65
2019-02-12T03:43:01.880Z,23.69
2019-02-12T03:45:28.529Z,23.66
2019-02-12T03:47:55.159Z,23.48
2019-02-12T03:50:21.959Z,23.26
2019-02-12T03:52:48.603Z,23.05
2019-02-12T03:55:15.279Z,22.98
2019-02-12T03:57:41.935Z,23.09
2019-02-12T04:00:08.583Z,23.19
2019-02-12T04:02:35.316Z,23.30
2019-02-12T04:05:02.025Z,23.38
2019-02-12T04:07:28.670Z,22.98
2019-02-12T04:09:55.319Z,22.53
2019-02-12T04:12:21.970Z,22.41
2019-02-12T04:14:48.745Z,22.43
2019-02-12T04:17:15.386Z,22.64
2019-02-12T04:19:42.136Z,22.81
2019-02-12T04:22:08.860Z,22.90
2019-02-12T04:24:35.574Z,22.83
2019-02-12T04:27:02.235Z,22.85
2019-02-12T04:29:28.873Z,22.93
2019-02-12T04:31:55.529Z,23.20
2019-02-12T04:34:22.219Z,23.39
2019-02-12T04:36:48.923Z,23.38
2019-02-12T04:39:15.560Z,23.43
2019-02-12T04:41:42.216Z,23.44
2019-02-12T04:44:08.870Z,23.45
2019-02-12T04:46:35.519Z,23.49
2019-02-12T04:49:02.235Z,23.47
2019-02-12T04:51:28.873Z,23.53
2019-02-12T04:53:55.523Z,23.56
2019-02-12T04:56:22.178Z,23.60
2019-02-12T04:58:48.870Z,23.61
2019-02-12T05:01:15.533Z,23.64
2019-02-12T05:03:42.203Z,23.85
2019-02-12T05:06:08.851Z,23.74
2019-02-12T05:08:35.499Z,23.70
2019-02-12T05:11:02.158Z,23.70
2019-02-12T05:13:28.815Z,23.81
2019-02-12T05:15:55.468Z,23.72
2019-02-12T05:18:22.129Z,23.59
2019-02-12T05:20:48.772Z,23.78
2019-02-12T05:23:15.523Z,23.79
2019-02-12T05:25:42.173Z,23.78
2019-02-12T05:28:08.864Z,23.62
2019-02-12T05:30:35.598Z,23.61
2019-02-12T05:33:02.283Z,23.62
2019-02-12T05:35:28.936Z,23.64
2019-02-12T05:37:55.603Z,23.65
2019-02-12T05:40:22.261Z,23.66
2019-02-12T05:42:48.903Z,23.80
2019-02-12T05:45:16.850Z,23.65
2019-02-12T05:47:42.277Z,23.74
2019-02-12T05:50:08.915Z,23.80
2019-02-12T05:52:35.682Z,23.75
2019-02-12T05:55:02.322Z,23.66
2019-02-12T05:57:28.954Z,23.65
2019-02-12T05:59:55.620Z,23.65
2019-02-12T06:02:22.302Z,23.67
2019-02-12T06:04:48.952Z,23.68
2019-02-12T06:07:15.639Z,23.69
2019-02-12T06:09:42.282Z,23.74
2019-02-12T06:12:08.986Z,23.77
2019-02-12T06:14:35.626Z,23.77
2019-02-12T06:17:02.332Z,23.81
2019-02-12T06:19:28.994Z,23.77
2019-02-12T06:21:55.648Z,23.78
2019-02-12T06:24:22.287Z,24.00
2019-02-12T06:26:48.934Z,24.03
2019-02-12T06:29:15.576Z,24.15
2019-02-12T06:31:42.339Z,24.54
2019-02-12T06:34:08.977Z,24.51
2019-02-12T06:36:35.652Z,24.56
2019-02-12T06:39:02.298Z,24.70
2019-02-12T06:41:28.990Z,24.81
2019-02-12T06:43:55.646Z,24.99
2019-02-12T06:46:22.433Z,25.09
2019-02-12T06:48:49.112Z,25.19
2019-02-12T06:51:15.797Z,25.29
2019-02-12T06:53:42.548Z,25.32
2019-02-12T06:56:09.204Z,25.40
2019-02-12T06:58:35.866Z,25.34
2019-02-12T07:01:02.558Z,25.41
2019-02-12T07:03:29.203Z,25.35
2019-02-12T07:05:55.913Z,25.24
2019-02-12T07:08:22.579Z,25.23
2019-02-12T07:10:49.269Z,25.16
2019-02-12T07:13:15.944Z,25.30
2019-02-12T07:15:42.695Z,25.39
2019-02-12T07:18:09.418Z,25.36
2019-02-12T07:20:36.101Z,25.05
2019-02-12T07:23:02.764Z,25.06
2019-02-12T07:25:29.418Z,25.03
2019-02-12T07:27:56.058Z,24.88
2019-02-12T07:30:22.713Z,24.78
2019-02-12T07:32:49.375Z,24.82
2019-02-12T07:35:16.080Z,24.66
2019-02-12T07:37:42.809Z,24.70
2019-02-12T07:40:09.488Z,24.60
2019-02-12T07:42:36.159Z,24.70
2019-02-12T07:45:02.953Z,24.60
2019-02-12T07:47:29.630Z,24.59
2019-02-12T07:49:56.322Z,24.47
2019-02-12T07:52:22.985Z,24.61
2019-02-12T07:54:49.669Z,24.55
2019-02-12T07:57:16.329Z,24.59
2019-02-12T07:59:43.094Z,24.54
2019-02-12T08:02:09.786Z,24.76
2019-02-12T08:04:36.516Z,24.57
2019-02-12T08:07:03.150Z,24.60
2019-02-12T08:09:29.835Z,24.51
2019-02-12T08:11:56.556Z,24.62
2019-02-12T08:14:23.203Z,24.60
2019-02-12T08:16:49.974Z,24.70
2019-02-12T08:19:16.625Z,24.55
2019-02-12T08:21:43.296Z,24.59
2019-02-12T08:24:09.988Z,24.49
2019-02-12T08:26:36.643Z,24.58
2019-02-12T08:29:03.347Z,24.57
2019-02-12T08:31:30.015Z,24.61
2019-02-12T08:33:57.574Z,24.56
2019-02-12T08:36:24.283Z,24.71
2019-02-12T08:38:51.024Z,24.77
2019-02-12T08:41:17.699Z,24.68
2019-02-12T08:43:44.373Z,24.75
2019-02-12T08:46:11.042Z,24.91
2019-02-12T08:48:37.718Z,24.84
2019-02-12T08:51:04.382Z,24.74
2019-02-12T08:53:31.073Z,24.71
2019-02-12T08:55:57.735Z,24.75
2019-02-12T08:58:24.535Z,24.83
2019-02-12T09:00:51.205Z,24.76
2019-02-12T09:03:17.844Z,24.69
2019-02-12T09:05:44.704Z,24.64
2019-02-12T09:08:11.360Z,24.66
2019-02-12T09:10:38.005Z,24.68
2019-02-12T09:13:04.688Z,24.66
2019-02-12T09:15:31.395Z,24.70
2019-02-12T09:17:58.047Z,24.63
2019-02-12T09:20:24.853Z,24.79
2019-02-12T09:22:51.562Z,24.96
2019-02-12T09:25:18.211Z,24.71
2019-02-12T09:27:44.903Z,24.67
2019-02-12T09:30:11.550Z,24.61
2019-02-12T09:32:38.243Z,24.69
2019-02-12T09:35:05.052Z,24.65
2019-02-12T09:37:33.968Z,24.68
2019-02-12T09:39:58.336Z,24.56
2019-02-12T09:42:25.623Z,24.55
2019-02-12T09:44:52.279Z,24.51
2019-02-12T09:47:18.972Z,24.48
2019-02-12T09:49:45.712Z,24.50
2019-02-12T09:52:12.413Z,24.56
2019-02-12T09:54:39.067Z,24.57
2019-02-12T09:57:05.753Z,24.56
2019-02-12T09:59:32.415Z,24.48
2019-02-12T10:01:59.073Z,24.48
2019-02-12T10:04:25.709Z,24.56
2019-02-12T10:06:52.385Z,24.50
2019-02-12T10:09:19.069Z,24.45
2019-02-12T10:11:45.761Z,24.45
2019-02-12T10:14:12.414Z,24.45
2019-02-12T10:16:39.137Z,24.51
2019-02-12T10:19:05.824Z,24.57
2019-02-12T10:21:32.573Z,24.90
2019-02-12T10:23:59.982Z,24.71
2019-02-12T10:26:26.790Z,24.58
2019-02-12T10:28:53.665Z,24.57
2019-02-12T10:31:20.509Z,24.64
2019-02-12T10:33:48.685Z,24.47
2019-02-12T10:36:15.457Z,24.51
2019-02-12T10:38:42.111Z,24.45
2019-02-12T10:41:08.979Z,24.48
2019-02-12T10:43:35.595Z,24.50
2019-02-12T10:46:02.314Z,24.60
2019-02-12T10:48:28.982Z,24.61
2019-02-12T10:50:55.721Z,24.59
2019-02-12T10:53:22.351Z,24.51
2019-02-12T10:55:49.074Z,24.61
2019-02-12T10:58:15.761Z,24.70
2019-02-12T11:00:42.429Z,24.72
2019-02-12T11:03:09.117Z,24.63
2019-02-12T11:05:35.809Z,24.67
2019-02-12T11:08:02.469Z,24.64
2019-02-12T11:10:29.143Z,24.50
2019-02-12T11:12:55.858Z,24.73
2019-02-12T11:15:22.660Z,24.68
2019-02-12T11:17:49.457Z,24.80
2019-02-12T11:20:16.312Z,25.03
2019-02-12T11:22:43.013Z,24.88
2019-02-12T11:25:09.682Z,24.91
2019-02-12T11:27:36.318Z,24.94
2019-02-12T11:30:02.991Z,24.92
2019-02-12T11:32:29.655Z,24.90
2019-02-12T11:34:56.332Z,24.99
2019-02-12T11:37:23.000Z,25.18
2019-02-12T11:39:49.630Z,25.05
2019-02-12T11:42:16.322Z,25.15
2019-02-12T11:44:43.065Z,25.06
2019-02-12T11:47:09.813Z,25.03
2019-02-12T11:49:36.455Z,24.87
2019-02-12T11:52:03.127Z,24.73
2019-02-12T11:54:29.763Z,24.56
2019-02-12T11:56:56.473Z,24.50
2019-02-12T11:59:23.167Z,24.60
2019-02-12T12:01:49.947Z,24.91
2019-02-12T12:04:16.619Z,25.13
2019-02-12T12:06:43.428Z,25.09
2019-02-12T12:09:10.075Z,25.26
2019-02-12T12:11:36.766Z,25.38
2019-02-12T12:14:03.466Z,25.20
2019-02-12T12:16:30.264Z,25.27
2019-02-12T12:18:57.017Z,25.43
2019-02-12T12:21:23.689Z,25.28
2019-02-12T12:23:50.360Z,25.34
2019-02-12T12:26:17.026Z,25.15
2019-02-12T12:28:43.768Z,25.27
2019-02-12T12:31:10.444Z,25.15
2019-02-12T12:33:40.322Z,25.13
2019-02-12T12:36:07.109Z,25.02
2019-02-12T12:38:33.762Z,25.11
2019-02-12T12:41:01.817Z,25.20
2019-02-12T12:43:27.077Z,25.21
2019-02-12T12:45:53.819Z,25.21
2019-02-12T12:48:20.506Z,25.14
2019-02-12T12:50:47.303Z,25.06
2019-02-12T12:53:14.024Z,25.10
2019-02-12T12:55:40.713Z,24.98
2019-02-12T12:58:07.519Z,25.01
2019-02-12T13:00:34.402Z,25.06
2019-02-12T13:03:01.109Z,24.94
2019-02-12T13:05:27.786Z,24.93
2019-02-12T13:07:54.480Z,25.02
2019-02-12T13:10:21.253Z,24.94
2019-02-12T13:12:49.999Z,24.95
2019-02-12T13:15:16.686Z,24.93
2019-02-12T13:17:43.478Z,24.96
2019-02-12T13:20:10.160Z,24.93
2019-02-12T13:22:36.989Z,24.91
2019-02-12T13:25:08.678Z,24.87
2019-02-12T13:27:30.392Z,24.97
2019-02-12T13:29:57.214Z,24.94
2019-02-12T13:32:23.894Z,25.14
2019-02-12T13:34:51.182Z,25.11
2019-02-12T13:37:17.940Z,25.23
2019-02-12T13:39:44.636Z,25.04
2019-02-12T13:42:11.384Z,25.16
2019-02-12T13:44:38.074Z,25.11
2019-02-12T13:47:04.781Z,25.01
2019-02-12T13:49:31.474Z,24.94
2019-02-12T13:51:58.181Z,24.95
2019-02-12T13:54:24.868Z,25.03
2019-02-12T13:56:51.558Z,25.29
2019-02-12T13:59:18.305Z,25.03
2019-02-12T14:01:44.956Z,24.94
2019-02-12T14:04:12.128Z,24.96
2019-02-12T14:06:38.875Z,24.97
2019-02-12T14:09:05.563Z,24.88
2019-02-12T14:11:32.315Z,24.94
2019-02-12T14:13:59.149Z,24.95
2019-02-12T14:16:25.847Z,24.85
2019-02-12T14:18:52.615Z,25.19
2019-02-12T14:21:19.389Z,25.20
2019-02-12T14:23:46.259Z,24.91
2019-02-12T14:26:13.141Z,24.81
2019-02-12T14:28:39.865Z,24.93
2019-02-12T14:31:06.540Z,25.00
2019-02-12T14:33:33.223Z,24.94
2019-02-12T14:35:59.934Z,25.02
2019-02-12T14:38:26.670Z,24.90
2019-02-12T14:40:53.376Z,25.06
2019-02-12T14:43:20.084Z,25.09
2019-02-12T14:45:46.774Z,25.01
2019-02-12T14:48:13.458Z,25.04
2019-02-12T14:50:40.326Z,25.05
2019-02-12T14:53:07.027Z,24.93
2019-02-12T14:55:34.225Z,24.87
2019-02-12T14:58:00.556Z,24.77
2019-02-12T15:00:27.292Z,24.75
2019-02-12T15:02:54.028Z,24.74
2019-02-12T15:05:20.771Z,24.80
2019-02-12T15:07:47.787Z,24.90
2019-02-12T15:10:14.471Z,24.83
2019-02-12T15:12:43.454Z,24.68
2019-02-12T15:15:10.199Z,24.72
2019-02-12T15:17:36.880Z,24.67
2019-02-12T15:20:03.568Z,24.62
2019-02-12T15:22:30.410Z,24.60
2019-02-12T15:24:57.084Z,24.60
2019-02-12T15:27:23.808Z,24.68
2019-02-12T15:29:50.482Z,24.61
2019-02-12T15:32:17.182Z,24.60
2019-02-12T15:34:43.879Z,24.56
2019-02-12T15:37:10.602Z,24.49
2019-02-12T15:39:37.278Z,24.52
2019-02-12T15:42:04.008Z,24.48
2019-02-12T15:44:30.700Z,24.40
2019-02-12T15:46:57.407Z,24.43
2019-02-12T15:49:24.250Z,24.46
2019-02-12T15:51:50.917Z,24.62
2019-02-12T15:54:17.642Z,24.44
2019-02-12T15:56:44.334Z,24.41
2019-02-12T15:59:12.378Z,24.37
2019-02-12T16:01:37.830Z,24.31
2019-02-12T16:04:04.502Z,24.27
2019-02-12T16:06:31.182Z,24.25
2019-02-12T16:08:57.949Z,24.21
2019-02-12T16:11:24.623Z,24.21
2019-02-12T16:13:51.300Z,24.24
2019-02-12T16:16:18.166Z,24.26
2019-02-12T16:18:46.036Z,24.20
2019-02-12T16:21:11.633Z,24.24
2019-02-12T16:23:38.367Z,24.28
2019-02-12T16:26:05.107Z,24.20
2019-02-12T16:28:34.891Z,24.13
2019-02-12T16:31:01.600Z,24.23
2019-02-12T16:33:28.323Z,24.12
2019-02-12T16:35:55.040Z,24.09
2019-02-12T16:38:21.727Z,24.11
2019-02-12T16:40:48.440Z,24.10
2019-02-12T16:43:15.286Z,24.04
2019-02-12T16:45:41.953Z,24.08
2019-02-12T16:48:08.759Z,24.05
2019-02-12T16:50:35.463Z,24.01
2019-02-12T16:53:02.245Z,23.98
2019-02-12T16:55:28.961Z,23.94
2019-02-12T16:57:55.654Z,23.92
2019-02-12T17:00:22.382Z,24.04
2019-02-12T17:02:49.211Z,24.04
2019-02-12T17:05:15.944Z,23.92
2019-02-12T17:07:42.782Z,24.02
2019-02-12T17:10:09.477Z,23.96
2019-02-12T17:12:36.161Z,24.09
2019-02-12T17:15:02.843Z,23.98
2019-02-12T17:17:29.581Z,24.03
2019-02-12T17:19:56.248Z,23.99
2019-02-12T17:22:23.020Z,23.99
2019-02-12T17:24:49.759Z,24.04
2019-02-12T17:27:16.442Z,24.01
2019-02-12T17:29:43.145Z,24.01
2019-02-12T17:32:09.862Z,24.02
2019-02-12T17:34:36.539Z,24.16
2019-02-12T17:37:04.607Z,24.04
2019-02-12T17:39:32.882Z,24.09
2019-02-12T17:41:59.564Z,24.07
2019-02-12T17:44:26.325Z,24.03
2019-02-12T17:46:53.273Z,24.01
2019-02-12T17:49:19.905Z,23.95
2019-02-12T17:51:46.642Z,23.94
2019-02-12T17:54:13.331Z,23.99
2019-02-12T17:56:40.065Z,23.99
2019-02-12T17:59:06.733Z,23.93
2019-02-12T18:01:33.416Z,23.94
2019-02-12T18:04:00.096Z,23.91
2019-02-12T18:06:26.789Z,23.95
2019-02-12T18:08:53.601Z,24.00
2019-02-12T18:11:20.488Z,23.91
2019-02-12T18:13:47.235Z,23.96
2019-02-12T18:16:13.981Z,23.86
2019-02-12T18:18:41.692Z,23.87
2019-02-12T18:21:07.479Z,23.83
2019-02-12T18:23:34.135Z,23.84
2019-02-12T18:26:00.830Z,23.84
2019-02-12T18:28:27.510Z,23.84
2019-02-12T18:30:54.192Z,23.83
2019-02-12T18:33:20.877Z,23.82
2019-02-12T18:35:47.546Z,23.92
2019-02-12T18:38:14.266Z,23.86
2019-02-12T18:40:40.938Z,23.90
2019-02-12T18:43:07.615Z,23.82
2019-02-12T18:45:34.309Z,23.85
2019-02-12T18:48:00.990Z,23.83
2019-02-12T18:50:27.681Z,23.85
2019-02-12T18:52:54.353Z,23.80
2019-02-12T18:55:21.034Z,23.83
2019-02-12T18:57:47.726Z,23.77
2019-02-12T19:00:14.456Z,23.83
2019-02-12T19:02:41.193Z,23.74
2019-02-12T19:05:07.911Z,23.77
2019-02-12T19:07:34.599Z,23.79
2019-02-12T19:10:01.273Z,23.79
2019-02-12T19:12:27.987Z,23.82
2019-02-12T19:14:54.662Z,23.87
2019-02-12T19:17:21.374Z,23.77
2019-02-12T19:19:48.064Z,23.78
2019-02-12T19:22:14.805Z,23.73
2019-02-12T19:24:41.490Z,23.73
2019-02-12T19:27:08.162Z,23.68
2019-02-12T19:29:34.926Z,23.68
2019-02-12T19:32:01.599Z,23.68
2019-02-12T19:34:28.274Z,23.67
2019-02-12T19:36:54.962Z,23.62
2019-02-12T19:39:21.676Z,23.64
2019-02-12T19:41:48.355Z,23.63
2019-02-12T19:44:15.022Z,23.62
2019-02-12T19:46:41.710Z,23.58
2019-02-12T19:49:08.498Z,23.64
2019-02-12T19:51:35.132Z,23.60
2019-02-12T19:54:01.808Z,23.40
2019-02-12T19:56:28.477Z,23.15
2019-02-12T19:58:55.188Z,22.93
2019-02-12T20:01:21.907Z,22.91
2019-02-12T20:06:53.752Z,23.13
2019-02-12T20:09:20.546Z,23.26
2019-02-12T20:11:47.233Z,23.36
2019-02-12T20:14:14.280Z,23.43
2019-02-12T20:16:40.989Z,23.42
2019-02-12T20:19:07.670Z,23.42
2019-02-12T20:21:34.360Z,23.42
2019-02-12T20:24:01.071Z,23.46
2019-02-12T20:26:27.827Z,23.48
2019-02-12T20:28:54.550Z,23.51
2019-02-12T20:31:21.259Z,23.49
2019-02-12T20:33:47.935Z,23.48
2019-02-12T20:36:14.697Z,23.49
2019-02-12T20:38:41.382Z,23.50
2019-02-12T20:41:08.191Z,23.50
2019-02-12T20:43:34.891Z,23.49
2019-02-12T20:46:01.657Z,23.48
2019-02-12T20:48:28.386Z,23.51
2019-02-12T20:50:55.058Z,23.54
2019-02-12T20:56:16.894Z,23.48
2019-02-12T20:58:43.575Z,23.45
2019-02-12T21:01:10.261Z,23.49
2019-02-12T21:03:36.933Z,23.42
2019-02-12T21:06:03.609Z,23.46
2019-02-12T21:08:30.290Z,23.43
2019-02-12T21:10:57.054Z,23.46
2019-02-12T21:13:23.728Z,23.40
2019-02-12T21:15:50.407Z,23.44
2019-02-12T21:18:17.085Z,23.38
2019-02-12T21:20:43.773Z,23.40
2019-02-12T21:23:10.465Z,23.31
2019-02-12T21:25:37.149Z,23.35
2019-02-12T21:28:03.830Z,23.35
2019-02-12T21:30:30.522Z,23.36
2019-02-12T21:32:57.267Z,23.30
2019-02-12T21:35:23.941Z,23.36
2019-02-12T21:37:53.798Z,23.33
2019-02-12T21:40:20.458Z,23.36
2019-02-12T21:42:47.135Z,23.28
2019-02-12T21:45:13.797Z,23.31
2019-02-12T21:47:40.448Z,23.30
2019-02-12T21:50:07.123Z,23.29
2019-02-12T21:52:33.795Z,23.28
2019-02-12T21:55:00.460Z,23.28
2019-02-12T21:57:31.871Z,23.26
2019-02-12T21:59:53.810Z,23.27
2019-02-12T22:02:20.478Z,23.26
2019-02-12T22:04:48.659Z,23.31
2019-02-12T22:07:13.797Z,23.25
2019-02-12T22:09:40.463Z,23.19
2019-02-12T22:12:07.132Z,23.27
2019-02-12T22:14:33.780Z,23.25
2019-02-12T22:17:00.434Z,23.22
2019-02-12T22:19:27.093Z,23.22
2019-02-12T22:21:53.752Z,23.17
2019-02-12T22:24:20.471Z,23.17
2019-02-12T22:26:47.140Z,23.21
2019-02-12T22:29:13.809Z,23.12
2019-02-12T22:31:40.464Z,23.16
2019-02-12T22:34:07.275Z,23.12
2019-02-12T22:36:33.939Z,23.10
2019-02-12T22:39:00.601Z,23.08
2019-02-12T22:41:27.254Z,23.14
2019-02-12T22:43:53.936Z,23.11
2019-02-12T22:46:20.644Z,23.12
2019-02-12T22:48:47.313Z,23.09
2019-02-12T22:51:13.971Z,23.13
2019-02-12T22:53:40.633Z,23.08
2019-02-12T22:56:07.313Z,23.10
2019-02-12T22:58:34.042Z,23.08
2019-02-12T23:01:00.717Z,23.09
2019-02-12T23:03:27.554Z,23.06
2019-02-12T23:05:54.233Z,23.05
2019-02-12T23:08:20.911Z,23.05
2019-02-12T23:10:47.789Z,23.11
2019-02-12T23:13:14.486Z,23.05
2019-02-12T23:15:41.252Z,23.11
2019-02-12T23:18:07.933Z,23.03
2019-02-12T23:20:34.600Z,23.05
2019-02-12T23:23:01.286Z,23.00
2019-02-12T23:25:27.974Z,23.02
2019-02-12T23:27:57.559Z,22.97
2019-02-12T23:30:21.339Z,22.98
2019-02-12T23:32:49.190Z,22.96
2019-02-12T23:35:14.754Z,23.05
2019-02-12T23:37:41.495Z,23.00
2019-02-12T23:40:08.174Z,23.00
2019-02-12T23:42:34.860Z,22.95
2019-02-12T23:45:01.538Z,23.00
2019-02-12T23:47:28.238Z,22.96
2019-02-12T23:49:54.907Z,23.00
2019-02-12T23:52:21.591Z,22.95
2019-02-12T23:54:48.266Z,22.94
2019-02-12T23:57:14.936Z,22.90
2019-02-12T23:59:41.614Z,22.93
